createdAt,value
2019-04-30T00:00:55.443Z,90.49
2019-04-30T00:03:32.229Z,91.09
2019-04-30T00:06:01.243Z,91.18
2019-04-30T00:08:34.774Z,91.06
2019-04-30T00:11:01.188Z,91.84
2019-04-30T00:13:30.608Z,91.67
2019-04-30T00:16:01.614Z,92.12
2019-04-30T00:18:30.861Z,92.39
2019-04-30T00:21:01.255Z,92.79
2019-04-30T00:23:30.930Z,92.92
2019-04-30T00:26:06.011Z,93.13
2019-04-30T00:28:35.420Z,93.12
2019-04-30T00:31:05.537Z,92.82
2019-04-30T00:33:36.935Z,93.17
2019-04-30T00:36:06.030Z,93.22
2019-04-30T00:38:37.930Z,93.07
2019-04-30T00:41:13.077Z,93.18
2019-04-30T00:43:47.133Z,92.77
2019-04-30T00:46:17.457Z,93.17
2019-04-30T00:48:45.503Z,92.87
2019-04-30T00:51:21.230Z,92.47
2019-04-30T00:53:51.224Z,92.65
2019-04-30T00:56:19.991Z,92.52
2019-04-30T00:58:48.979Z,92.88
2019-04-30T01:01:48.025Z,92.76
2019-04-30T01:04:37.311Z,92.76
2019-04-30T01:07:08.635Z,93.18
2019-04-30T01:09:39.744Z,93.43
2019-04-30T01:12:09.333Z,93.03
2019-04-30T01:14:41.692Z,92.92
2019-04-30T01:17:12.306Z,92.85
2019-04-30T01:19:46.066Z,92.76
2019-04-30T01:22:13.613Z,92.87
2019-04-30T01:24:43.005Z,92.81
2019-04-30T01:27:12.106Z,92.94
2019-04-30T01:29:44.357Z,93.25
2019-04-30T01:32:19.823Z,93.49
2019-04-30T01:34:49.956Z,92.74
2019-04-30T01:37:20.304Z,92.29
2019-04-30T01:39:49.230Z,92.33
2019-04-30T01:42:18.664Z,92.35
2019-04-30T01:44:54.077Z,92.02
2019-04-30T01:47:27.892Z,91.88
2019-04-30T01:50:00.207Z,91.89
2019-04-30T01:52:49.328Z,91.98
2019-04-30T01:55:19.777Z,91.32
2019-04-30T01:58:02.530Z,91.15
2019-04-30T02:00:36.419Z,90.70
2019-04-30T02:03:05.829Z,90.79
2019-04-30T02:05:35.217Z,90.74
2019-04-30T02:08:04.610Z,90.72
2019-04-30T02:10:35.955Z,90.03
2019-04-30T02:13:06.155Z,90.18
2019-04-30T02:15:35.253Z,90.37
2019-04-30T02:18:04.585Z,90.11
2019-04-30T02:20:33.653Z,89.90
2019-04-30T02:23:02.701Z,89.90
2019-04-30T02:25:32.101Z,90.07
2019-04-30T02:28:03.471Z,89.45
2019-04-30T02:30:35.655Z,89.78
2019-04-30T02:33:05.075Z,90.09
2019-04-30T02:35:54.171Z,90.48
2019-04-30T02:38:32.303Z,90.14
2019-04-30T02:41:02.584Z,90.61
2019-04-30T02:43:33.219Z,90.51
2019-04-30T02:46:04.042Z,90.01
2019-04-30T02:48:33.932Z,89.81
2019-04-30T02:51:04.508Z,89.48
2019-04-30T02:54:10.768Z,89.87
2019-04-30T02:56:41.213Z,90.41
2019-04-30T02:59:10.522Z,90.27
2019-04-30T03:01:40.439Z,89.96
2019-04-30T03:04:10.259Z,89.50
2019-04-30T03:06:40.217Z,90.06
2019-04-30T03:09:10.749Z,90.50
2019-04-30T03:11:40.731Z,90.48
2019-04-30T03:14:10.995Z,90.58
2019-04-30T03:16:53.479Z,90.76
2019-04-30T03:19:44.812Z,90.62
2019-04-30T03:22:16.642Z,90.62
2019-04-30T03:24:45.663Z,89.95
2019-04-30T03:27:14.736Z,90.26
2019-04-30T03:29:44.527Z,90.26
2019-04-30T03:32:14.511Z,90.82
2019-04-30T03:34:44.378Z,90.73
2019-04-30T03:37:14.388Z,90.85
2019-04-30T03:39:44.032Z,90.89
2019-04-30T03:42:19.882Z,91.16
2019-04-30T03:44:49.746Z,91.20
2019-04-30T03:47:20.148Z,91.43
2019-04-30T03:49:50.111Z,91.30
2019-04-30T03:52:20.017Z,91.70
2019-04-30T03:54:49.743Z,91.63
2019-04-30T03:57:20.565Z,92.01
2019-04-30T03:59:52.238Z,91.69
2019-04-30T04:02:40.899Z,91.43
2019-04-30T04:05:21.720Z,91.78
2019-04-30T04:08:21.841Z,91.48
2019-04-30T04:11:12.610Z,91.25
2019-04-30T04:13:42.109Z,91.07
2019-04-30T04:16:11.200Z,90.98
2019-04-30T04:18:40.420Z,90.92
2019-04-30T04:21:16.508Z,90.92
2019-04-30T04:23:40.243Z,91.03
2019-04-30T04:26:09.650Z,90.50
2019-04-30T04:28:43.105Z,91.03
2019-04-30T04:31:09.649Z,91.09
2019-04-30T04:33:40.475Z,91.09
2019-04-30T04:36:09.520Z,90.23
2019-04-30T04:38:41.525Z,90.37
2019-04-30T04:41:10.612Z,90.86
2019-04-30T04:43:40.136Z,90.91
2019-04-30T04:46:09.866Z,90.64
2019-04-30T04:48:39.445Z,90.68
2019-04-30T04:51:19.786Z,91.17
2019-04-30T04:53:40.300Z,91.32
2019-04-30T04:56:10.204Z,90.89
2019-04-30T04:58:43.167Z,90.79
2019-04-30T05:01:12.337Z,90.42
2019-04-30T05:03:41.353Z,90.68
2019-04-30T05:06:11.804Z,90.53
2019-04-30T05:08:43.972Z,90.66
2019-04-30T05:11:13.470Z,90.25
2019-04-30T05:13:42.814Z,90.26
2019-04-30T05:16:12.958Z,89.82
2019-04-30T05:18:42.029Z,89.64
2019-04-30T05:21:14.499Z,89.99
2019-04-30T05:23:43.952Z,89.72
2019-04-30T05:26:15.039Z,89.58
2019-04-30T05:28:44.192Z,90.78
2019-04-30T05:31:13.570Z,90.75
2019-04-30T05:33:43.124Z,90.66
2019-04-30T05:36:12.196Z,90.61
2019-04-30T05:38:41.615Z,90.26
2019-04-30T05:41:10.662Z,90.66
2019-04-30T05:43:39.695Z,90.58
2019-04-30T05:46:11.023Z,91.00
2019-04-30T05:48:41.242Z,91.08
2019-04-30T05:51:10.978Z,90.55
2019-04-30T05:53:40.319Z,90.07
2019-04-30T05:56:09.906Z,89.44
2019-04-30T05:58:39.687Z,89.51
2019-04-30T06:01:09.668Z,89.85
2019-04-30T06:03:39.673Z,90.08
2019-04-30T06:06:11.263Z,89.90
2019-04-30T06:08:46.578Z,89.84
2019-04-30T06:11:34.596Z,89.70
2019-04-30T06:14:23.828Z,89.41
2019-04-30T06:17:11.537Z,88.68
2019-04-30T06:19:42.984Z,88.24
2019-04-30T06:22:12.554Z,88.41
2019-04-30T06:24:41.713Z,87.09
2019-04-30T06:27:11.298Z,86.42
2019-04-30T06:29:41.516Z,86.60
2019-04-30T06:32:12.370Z,85.50
2019-04-30T06:34:42.179Z,84.16
2019-04-30T06:37:11.220Z,84.16
2019-04-30T06:39:40.299Z,83.35
2019-04-30T06:42:14.761Z,82.91
2019-04-30T06:44:43.951Z,82.97
2019-04-30T06:47:18.939Z,84.51
2019-04-30T06:49:48.994Z,83.59
2019-04-30T06:52:21.461Z,83.60
2019-04-30T06:54:49.811Z,83.01
2019-04-30T06:57:19.973Z,82.70
2019-04-30T06:59:51.576Z,82.03
2019-04-30T07:02:20.676Z,82.08
2019-04-30T07:04:50.046Z,82.99
2019-04-30T07:07:23.016Z,82.95
2019-04-30T07:10:01.212Z,83.31
2019-04-30T07:12:38.876Z,82.46
2019-04-30T07:15:13.574Z,82.17
2019-04-30T07:17:41.863Z,82.13
2019-04-30T07:20:10.896Z,82.13
2019-04-30T07:22:48.954Z,82.10
2019-04-30T07:25:10.995Z,82.10
2019-04-30T07:27:40.677Z,79.75
2019-04-30T07:30:10.190Z,79.96
2019-04-30T07:32:39.722Z,80.79
2019-04-30T07:35:09.683Z,79.91
2019-04-30T07:37:39.277Z,80.20
2019-04-30T07:40:09.270Z,79.70
2019-04-30T07:42:44.712Z,79.09
2019-04-30T07:45:09.829Z,78.31
2019-04-30T07:47:40.182Z,78.34
2019-04-30T07:50:10.627Z,78.67
2019-04-30T07:52:57.740Z,78.67
2019-04-30T07:55:11.186Z,79.22
2019-04-30T07:57:40.659Z,78.75
2019-04-30T08:00:10.221Z,79.25
2019-04-30T08:02:44.333Z,79.45
2019-04-30T08:05:25.695Z,79.05
2019-04-30T08:07:54.786Z,77.61
2019-04-30T08:10:23.860Z,78.57
2019-04-30T08:12:53.183Z,76.32
2019-04-30T08:15:25.462Z,77.74
2019-04-30T08:18:03.502Z,77.97
2019-04-30T08:20:25.278Z,75.11
2019-04-30T08:22:54.314Z,76.15
2019-04-30T08:25:23.562Z,77.28
2019-04-30T08:27:56.208Z,77.62
2019-04-30T08:30:26.999Z,75.59
2019-04-30T08:32:57.012Z,76.01
2019-04-30T08:35:26.368Z,74.57
2019-04-30T08:37:55.414Z,74.80
2019-04-30T08:40:24.520Z,75.33
2019-04-30T08:42:54.198Z,75.17
2019-04-30T08:45:23.223Z,75.70
2019-04-30T08:47:52.657Z,75.01
2019-04-30T08:50:22.712Z,76.09
2019-04-30T08:52:51.835Z,75.53
2019-04-30T08:55:23.630Z,75.28
2019-04-30T08:57:52.698Z,74.93
2019-04-30T09:00:23.381Z,75.57
2019-04-30T09:02:52.756Z,74.67
2019-04-30T09:05:30.009Z,74.23
2019-04-30T09:07:59.842Z,74.79
2019-04-30T09:10:29.627Z,75.47
2019-04-30T09:12:59.776Z,76.87
2019-04-30T09:15:29.438Z,75.09
2019-04-30T09:18:03.777Z,75.09
2019-04-30T09:20:33.758Z,74.91
2019-04-30T09:23:03.156Z,75.79
2019-04-30T09:25:32.564Z,74.61
2019-04-30T09:28:04.407Z,74.29
2019-04-30T09:30:32.812Z,74.68
2019-04-30T09:33:02.502Z,74.49
2019-04-30T09:35:34.282Z,75.11
2019-04-30T09:38:03.507Z,75.16
2019-04-30T09:40:32.706Z,73.34
2019-04-30T09:43:02.350Z,72.92
2019-04-30T09:45:31.728Z,73.70
2019-04-30T09:48:01.151Z,73.16
2019-04-30T09:50:30.636Z,73.18
2019-04-30T09:53:00.829Z,72.92
2019-04-30T09:55:30.358Z,73.39
2019-04-30T09:57:59.418Z,72.99
2019-04-30T10:00:29.568Z,72.03
2019-04-30T10:02:59.918Z,71.45
2019-04-30T10:05:31.490Z,72.26
2019-04-30T10:08:00.941Z,72.25
2019-04-30T10:10:35.804Z,71.26
2019-04-30T10:13:05.263Z,72.60
2019-04-30T10:15:58.571Z,73.08
2019-04-30T10:18:28.009Z,72.61
2019-04-30T10:20:58.852Z,71.76
2019-04-30T10:23:27.836Z,69.76
2019-04-30T10:25:56.854Z,71.21
2019-04-30T10:28:26.212Z,70.74
2019-04-30T10:30:55.288Z,69.82
2019-04-30T10:33:24.320Z,69.14
2019-04-30T10:35:54.100Z,69.77
2019-04-30T10:38:23.662Z,69.92
2019-04-30T10:40:58.624Z,70.37
2019-04-30T10:43:26.738Z,70.53
2019-04-30T10:45:55.764Z,68.69
2019-04-30T10:48:25.152Z,68.35
2019-04-30T10:50:59.950Z,68.71
2019-04-30T10:53:31.978Z,68.08
2019-04-30T10:56:00.991Z,68.83
2019-04-30T10:58:30.383Z,70.32
2019-04-30T11:01:01.900Z,70.33
2019-04-30T11:03:30.170Z,69.14
2019-04-30T11:05:59.214Z,69.82
2019-04-30T11:08:28.232Z,68.52
2019-04-30T11:10:57.305Z,68.33
2019-04-30T11:13:26.399Z,69.27
2019-04-30T11:15:55.846Z,69.94
2019-04-30T11:18:25.932Z,69.84
2019-04-30T11:20:55.237Z,69.07
2019-04-30T11:23:24.859Z,70.31
2019-04-30T11:25:55.009Z,71.44
2019-04-30T11:28:25.342Z,71.04
2019-04-30T11:31:08.964Z,69.66
2019-04-30T11:33:38.424Z,70.81
2019-04-30T11:36:09.626Z,70.81
2019-04-30T11:38:38.859Z,68.41
2019-04-30T11:41:09.347Z,68.95
2019-04-30T11:43:40.851Z,68.45
2019-04-30T11:47:15.136Z,68.56
2019-04-30T11:49:44.221Z,69.42
2019-04-30T11:52:13.330Z,68.33
2019-04-30T11:54:49.222Z,67.73
2019-04-30T11:57:13.644Z,67.01
2019-04-30T11:59:42.717Z,66.95
2019-04-30T12:02:19.081Z,65.22
2019-04-30T12:04:49.429Z,65.87
2019-04-30T12:07:27.807Z,63.46
2019-04-30T12:10:09.471Z,63.66
2019-04-30T12:12:38.862Z,60.51
2019-04-30T12:15:09.286Z,59.17
2019-04-30T12:17:38.684Z,57.83
2019-04-30T12:20:08.623Z,58.41
2019-04-30T12:22:39.665Z,56.17
2019-04-30T12:25:10.015Z,53.80
2019-04-30T12:27:39.208Z,56.48
2019-04-30T12:30:08.993Z,57.55
2019-04-30T12:32:39.276Z,56.98
2019-04-30T12:35:09.284Z,57.37
2019-04-30T12:37:39.105Z,58.62
2019-04-30T12:40:10.825Z,58.75
2019-04-30T12:42:40.111Z,57.11
2019-04-30T12:45:09.592Z,57.57
2019-04-30T12:47:43.275Z,56.79
2019-04-30T12:50:21.092Z,57.29
2019-04-30T12:52:54.289Z,56.92
2019-04-30T12:55:46.037Z,57.89
2019-04-30T12:58:15.085Z,57.01
2019-04-30T13:00:45.516Z,57.06
2019-04-30T13:03:15.289Z,58.75
2019-04-30T13:05:45.906Z,58.92
2019-04-30T13:08:16.397Z,58.96
2019-04-30T13:10:46.642Z,58.86
2019-04-30T13:13:17.510Z,58.29
2019-04-30T13:15:47.125Z,59.87
2019-04-30T13:18:16.454Z,57.84
2019-04-30T13:20:45.603Z,57.93
2019-04-30T13:23:15.015Z,57.59
2019-04-30T13:25:51.247Z,56.21
2019-04-30T13:28:18.969Z,53.08
2019-04-30T13:30:49.473Z,55.34
2019-04-30T13:33:39.209Z,51.15
2019-04-30T13:36:08.839Z,51.35
2019-04-30T13:38:52.037Z,53.56
2019-04-30T13:41:30.537Z,54.65
2019-04-30T13:44:09.733Z,54.90
2019-04-30T13:46:39.649Z,54.45
2019-04-30T13:49:09.251Z,55.06
2019-04-30T13:51:38.968Z,55.97
2019-04-30T13:54:08.775Z,56.28
2019-04-30T13:56:39.688Z,56.96
2019-04-30T13:59:11.701Z,54.69
2019-04-30T14:01:41.456Z,54.32
2019-04-30T14:04:16.913Z,55.02
2019-04-30T14:06:56.482Z,55.96
2019-04-30T14:09:27.819Z,56.27
2019-04-30T14:11:58.230Z,57.50
2019-04-30T14:14:29.222Z,57.33
2019-04-30T14:17:01.188Z,57.95
2019-04-30T14:19:29.826Z,58.99
2019-04-30T14:21:59.557Z,58.09
2019-04-30T14:24:28.583Z,59.39
2019-04-30T14:26:59.084Z,58.13
2019-04-30T14:29:29.896Z,58.77
2019-04-30T14:31:58.963Z,58.88
2019-04-30T14:34:28.704Z,59.23
2019-04-30T14:36:59.360Z,58.57
2019-04-30T14:39:29.172Z,59.04
2019-04-30T14:42:00.079Z,59.75
2019-04-30T14:44:31.783Z,56.96
2019-04-30T14:47:40.816Z,56.31
2019-04-30T14:50:20.378Z,56.60
2019-04-30T14:53:17.503Z,55.88
2019-04-30T14:56:14.694Z,55.59
2019-04-30T14:59:01.707Z,58.19
2019-04-30T15:01:55.526Z,56.63
2019-04-30T15:04:24.940Z,59.22
2019-04-30T15:06:53.989Z,58.02
2019-04-30T15:09:23.099Z,58.27
2019-04-30T15:11:52.185Z,61.04
2019-04-30T15:14:21.728Z,62.38
2019-04-30T15:16:50.804Z,60.74
2019-04-30T15:19:19.906Z,60.06
2019-04-30T15:21:49.167Z,59.74
2019-04-30T15:24:26.418Z,58.24
2019-04-30T15:26:57.699Z,57.28
2019-04-30T15:29:26.275Z,59.64
2019-04-30T15:31:55.371Z,57.51
2019-04-30T15:34:24.775Z,58.75
2019-04-30T15:36:53.849Z,57.48
2019-04-30T15:39:33.696Z,58.94
2019-04-30T15:42:05.550Z,60.48
2019-04-30T15:44:40.036Z,59.16
2019-04-30T15:47:06.565Z,59.88
2019-04-30T15:49:35.811Z,60.25
2019-04-30T15:52:10.614Z,60.88
2019-04-30T15:54:39.307Z,60.40
2019-04-30T15:57:08.921Z,58.92
2019-04-30T15:59:39.861Z,60.13
2019-04-30T16:02:14.194Z,59.70
2019-04-30T16:04:56.506Z,61.54
2019-04-30T16:07:25.609Z,61.58
2019-04-30T16:10:29.023Z,60.98
2019-04-30T16:13:09.678Z,62.50
2019-04-30T16:15:39.163Z,62.14
2019-04-30T16:18:09.758Z,61.21
2019-04-30T16:20:39.343Z,60.55
2019-04-30T16:23:09.204Z,60.71
2019-04-30T16:25:43.467Z,59.58
2019-04-30T16:28:13.973Z,60.52
2019-04-30T16:30:43.663Z,61.84
2019-04-30T16:33:12.693Z,62.47
2019-04-30T16:35:44.417Z,63.11
2019-04-30T16:38:13.487Z,64.04
2019-04-30T16:40:42.551Z,63.60
2019-04-30T16:43:11.629Z,63.49
2019-04-30T16:45:40.679Z,65.30
2019-04-30T16:48:11.917Z,65.38
2019-04-30T16:50:40.965Z,64.97
2019-04-30T16:53:10.046Z,64.88
2019-04-30T16:55:39.090Z,64.93
2019-04-30T16:58:08.963Z,64.09
2019-04-30T17:00:39.230Z,63.00
2019-04-30T17:03:15.185Z,64.70
2019-04-30T17:05:49.975Z,64.55
2019-04-30T17:08:26.914Z,64.63
2019-04-30T17:11:33.109Z,66.28
2019-04-30T17:14:05.094Z,64.92
2019-04-30T17:16:34.984Z,65.35
2019-04-30T17:19:04.350Z,64.61
2019-04-30T17:21:33.635Z,66.26
2019-04-30T17:24:02.961Z,67.28
2019-04-30T17:26:32.404Z,66.04
2019-04-30T17:29:01.735Z,67.79
2019-04-30T17:31:30.814Z,68.44
2019-04-30T17:34:02.277Z,68.62
2019-04-30T17:36:31.936Z,68.29
2019-04-30T17:39:00.984Z,67.50
2019-04-30T17:41:30.295Z,69.12
2019-04-30T17:43:59.677Z,69.72
2019-04-30T17:46:28.816Z,68.32
2019-04-30T17:48:59.260Z,70.82
2019-04-30T17:51:29.565Z,70.80
2019-04-30T17:54:13.323Z,69.63
2019-04-30T17:56:43.245Z,70.01
2019-04-30T17:59:12.382Z,71.20
2019-04-30T18:01:43.821Z,70.14
2019-04-30T18:04:13.059Z,71.20
2019-04-30T18:06:42.143Z,69.99
2019-04-30T18:09:11.862Z,71.46
2019-04-30T18:11:40.916Z,72.95
2019-04-30T18:14:10.105Z,73.78
2019-04-30T18:16:39.203Z,73.88
2019-04-30T18:19:21.835Z,73.64
2019-04-30T18:21:56.845Z,74.66
2019-04-30T18:24:45.770Z,75.41
2019-04-30T18:27:24.175Z,75.74
2019-04-30T18:29:53.262Z,74.95
2019-04-30T18:32:24.203Z,75.65
2019-04-30T18:34:53.283Z,76.32
2019-04-30T18:37:22.723Z,76.47
2019-04-30T18:39:52.143Z,77.71
2019-04-30T18:42:21.645Z,75.41
2019-04-30T18:44:51.005Z,75.12
2019-04-30T18:47:20.089Z,75.54
2019-04-30T18:49:49.576Z,76.83
2019-04-30T18:52:18.913Z,77.42
2019-04-30T18:54:49.498Z,76.68
2019-04-30T18:57:18.696Z,76.19
2019-04-30T18:59:47.767Z,78.01
2019-04-30T19:02:17.444Z,76.76
2019-04-30T19:04:49.622Z,78.36
2019-04-30T19:07:29.811Z,78.56
2019-04-30T19:10:33.172Z,77.24
2019-04-30T19:13:21.176Z,78.32
2019-04-30T19:16:19.827Z,78.67
2019-04-30T19:18:48.137Z,79.97
2019-04-30T19:21:17.246Z,80.33
2019-04-30T19:23:48.592Z,80.84
2019-04-30T19:26:19.045Z,80.10
2019-04-30T19:28:49.288Z,80.38
2019-04-30T19:31:19.948Z,81.07
2019-04-30T19:33:51.534Z,81.32
2019-04-30T19:36:22.150Z,81.83
2019-04-30T19:38:51.659Z,82.36
2019-04-30T19:41:20.818Z,82.49
2019-04-30T19:43:50.317Z,82.90
2019-04-30T19:46:19.924Z,83.65
2019-04-30T19:48:50.697Z,83.16
2019-04-30T19:51:20.444Z,83.67
2019-04-30T19:53:49.493Z,84.08
2019-04-30T19:56:20.678Z,84.83
2019-04-30T19:59:01.818Z,83.96
2019-04-30T20:01:20.979Z,84.68
2019-04-30T20:03:50.019Z,84.82
2019-04-30T20:06:19.206Z,84.97
2019-04-30T20:08:48.551Z,85.20
2019-04-30T20:11:17.992Z,85.46
2019-04-30T20:13:48.936Z,85.46
2019-04-30T20:16:19.605Z,85.48
2019-04-30T20:18:49.079Z,86.35
2019-04-30T20:21:27.922Z,86.35
2019-04-30T20:23:51.205Z,86.76
2019-04-30T20:26:21.409Z,86.99
2019-04-30T20:28:50.462Z,86.34
2019-04-30T20:31:19.521Z,86.94
2019-04-30T20:33:49.025Z,87.33
2019-04-30T20:36:19.145Z,86.39
2019-04-30T20:39:19.494Z,87.22
2019-04-30T20:41:51.750Z,87.40
2019-04-30T20:44:20.790Z,87.12
2019-04-30T20:46:49.854Z,86.92
2019-04-30T20:49:19.364Z,86.92
2019-04-30T20:51:55.585Z,87.21
2019-04-30T20:54:19.322Z,87.54
2019-04-30T20:56:51.052Z,87.58
2019-04-30T20:59:20.514Z,87.51
2019-04-30T21:01:49.890Z,87.93
2019-04-30T21:04:20.989Z,88.10
2019-04-30T21:06:53.137Z,87.95
2019-04-30T21:09:22.548Z,88.12
2019-04-30T21:11:54.245Z,88.11
2019-04-30T21:14:23.679Z,87.99
2019-04-30T21:16:53.008Z,88.33
2019-04-30T21:19:25.111Z,88.31
2019-04-30T21:21:54.164Z,88.48
2019-04-30T21:24:23.228Z,88.39
2019-04-30T21:26:52.283Z,87.92
2019-04-30T21:29:21.314Z,88.56
2019-04-30T21:32:14.631Z,88.78
2019-04-30T21:35:02.718Z,88.81
2019-04-30T21:37:33.938Z,88.94
2019-04-30T21:40:05.087Z,88.51
2019-04-30T21:42:34.326Z,89.05
2019-04-30T21:45:05.968Z,88.86
2019-04-30T21:47:35.016Z,89.64
2019-04-30T21:50:04.096Z,88.99
2019-04-30T21:52:33.128Z,88.76
2019-04-30T21:55:02.217Z,88.99
2019-04-30T21:57:32.754Z,89.20
2019-04-30T22:00:02.554Z,89.45
2019-04-30T22:02:31.578Z,89.08
2019-04-30T22:05:00.636Z,89.96
2019-04-30T22:07:30.057Z,90.11
2019-04-30T22:09:59.110Z,89.80
2019-04-30T22:12:28.444Z,89.77
2019-04-30T22:14:58.914Z,89.67
2019-04-30T22:17:29.279Z,90.05
2019-04-30T22:19:59.635Z,89.76
2019-04-30T22:22:31.572Z,89.86
2019-04-30T22:25:00.678Z,89.97
2019-04-30T22:27:29.742Z,90.46
2019-04-30T22:29:59.064Z,89.75
2019-04-30T22:32:28.078Z,89.39
2019-04-30T22:35:19.200Z,90.21
2019-04-30T22:37:50.635Z,90.78
2019-04-30T22:40:19.741Z,90.26
2019-04-30T22:42:49.680Z,90.57
2019-04-30T22:45:24.421Z,90.29
2019-04-30T22:47:53.450Z,90.29
2019-04-30T22:50:22.494Z,90.15
2019-04-30T22:52:51.524Z,90.71
2019-04-30T22:55:20.590Z,90.60
2019-04-30T22:57:51.745Z,91.66
2019-04-30T23:00:32.518Z,90.98
2019-04-30T23:03:10.944Z,91.27
2019-04-30T23:05:40.351Z,91.12
2019-04-30T23:08:09.384Z,92.14
2019-04-30T23:10:38.772Z,91.77
2019-04-30T23:13:08.136Z,91.62
2019-04-30T23:15:39.989Z,91.98
2019-04-30T23:18:12.239Z,92.23
2019-04-30T23:20:41.272Z,91.60
2019-04-30T23:23:10.371Z,92.10
2019-04-30T23:25:39.631Z,91.81
2019-04-30T23:28:08.634Z,91.78
2019-04-30T23:30:38.063Z,91.95
2019-04-30T23:33:07.098Z,91.76
2019-04-30T23:35:39.086Z,91.61
2019-04-30T23:38:09.879Z,91.44
2019-04-30T23:40:50.689Z,91.55
2019-04-30T23:43:20.342Z,91.26
2019-04-30T23:45:49.538Z,90.81
2019-04-30T23:48:18.608Z,90.53
2019-04-30T23:50:48.039Z,91.20
2019-04-30T23:53:17.065Z,91.05
2019-04-30T23:55:46.082Z,91.02
2019-04-30T23:58:15.528Z,91.24
